METAR Data
IDs: Format: Raw Decoded Include TAF

Data at: 1012 UTC 18 Jan 2019

PAGS 180956Z AUTO 00000KT 10SM CLR M11/M13 A2962 RMK AO2 SLP032 T11111128 FZRANO
PAGS 180856Z AUTO VRB03KT 10SM CLR M10/M11 A2962 RMK AO2 SLP030 T11001111 400281100 53005 FZRANO
PAGS 180756Z AUTO 00000KT 10SM CLR M10/M12 A2961 RMK AO2 SLP028 T11001117 FZRANO
PAGS 180656Z AUTO 00000KT 10SM CLR M09/M10 A2961 RMK AO2 SLP026 T10891100 FZRANO
PAGS 180556Z AUTO 00000KT 10SM CLR M08/M09 A2960 RMK AO2 SLP025 T10831094 10006 21083 54000 FZRANO
PAGS 180456Z AUTO 00000KT 10SM CLR M07/M08 A2960 RMK AO2 SLP025 T10671078 FZRANO
PAGS 180356Z AUTO 34003KT 10SM CLR M06/M07 A2960 RMK AO2 SLP024 T10611072 FZRANO
PAGS 180256Z AUTO 00000KT 3SM BR CLR M06/M06 A2960 RMK AO2 SLP025 T10561061 51003 FZRANO
PAGS 180156Z AUTO 34005KT 10SM FEW002 M05/M06 A2960 RMK AO2 SLP025 T10501061 FZRANO
PAGS 180133Z AUTO 00000KT 7SM FEW002 M04/M05 A2960 RMK AO2 FZRANO
PAGS 180126Z AUTO 00000KT 1 3/4SM BR FEW002 M04/M05 A2960 RMK AO2 FZRANO
PAGS 180124Z AUTO 00000KT 1/2SM FZFG VV002 M04/M05 A2960 RMK AO2 FZRANO RVRNO
PAGS 180121Z AUTO 00000KT 1/4SM FZFG VV001 M04/M05 A2960 RMK AO2 FZRANO RVRNO
PAGS 180107Z AUTO 00000KT 1/4SM FZFG CLR M04/M05 A2959 RMK AO2 FZRANO RVRNO
PAGS 180056Z AUTO 00000KT 1/2SM FZFG CLR M03/M04 A2960 RMK AO2 SLP022 T10281039 FZRANO RVRNO
PAGS 180036Z AUTO 34003KT 1/2SM FZFG CLR M02/M03 A2960 RMK AO2 FZRANO RVRNO
PAGS 180027Z AUTO 00000KT 3/4SM BR CLR M01/M03 A2960 RMK AO2 FZRANO RVRNO
PAGS 180025Z AUTO 00000KT 1 1/2SM BR CLR M01/M03 A2960 RMK AO2 FZRANO
PAGS 172354Z AUTO 00000KT 1 1/4SM BR CLR 01/M02 A2959 RMK AO2 FZRANO
PAGS 172345Z AUTO 34003KT 3/4SM HZ CLR 01/M02 A2959 RMK AO2 FZRANO RVRNO
PAGS 172338Z AUTO 00000KT 1 1/4SM BR CLR 01/M02 A2959 RMK AO2 FZRANO
PAGS 172329Z AUTO 00000KT 3/4SM BR CLR 01/M02 A2959 RMK AO2 VIS 1/2V5 FZRANO RVRNO
PAGS 172325Z AUTO 00000KT 1 3/4SM HZ CLR 01/M02 A2959 RMK AO2 FZRANO
PAGS 172320Z AUTO 00000KT 4SM BR CLR 01/M02 A2959 RMK AO2 FZRANO
PAGS 172317Z AUTO 00000KT 1 1/2SM HZ CLR 01/M02 A2959 RMK AO2 VIS 1/2V5 FZRANO
PAGS 172309Z AUTO 00000KT 3/4SM HZ CLR 02/M01 A2959 RMK AO2 VIS 1/2V5 FZRANO RVRNO
PAGS 172306Z AUTO 00000KT 1 1/4SM HZ CLR 02/M01 A2959 RMK AO2 VIS 1/2V5 FZRANO
PAGS 172256Z AUTO 00000KT 10SM CLR 02/00 A2959 RMK AO2 SLP021 T00220000 FZRANO
PAGS 172248Z AUTO 00000KT 4SM BR CLR 01/M01 A2960 RMK AO2 FZRANO
PAGS 172240Z AUTO 00000KT 1 3/4SM HZ CLR 01/M02 A2959 RMK AO2 VIS 3/4V5 FZRANO
PAGS 172229Z AUTO 00000KT 3SM BR CLR 02/M01 A2959 RMK AO2 FZRANO
PAGS 172218Z AUTO 00000KT 1 3/4SM HZ CLR 03/M01 A2959 RMK AO2 VIS 3/4V5
PAGS 172156Z AUTO 00000KT 10SM CLR 02/M01 A2959 RMK AO2 SLP022 T00171011 FZRANO
PAGS 172056Z AUTO 35003KT 10SM CLR M01/M02 A2960 RMK AO2 SLP024 T10061017 58006 FZRANO
PAGS 171956Z AUTO 00000KT 10SM CLR M03/M03 A2961 RMK AO2 SLP029 T10281033 FZRANO
PAGS 171904Z AUTO 00000KT 10SM FEW001 M04/M06 A2962 RMK AO2 FZRANO
PAGS 171856Z AUTO 00000KT 10SM CLR M05/M06 A2962 RMK AO2 SLP030 T10501061 FZRANO
PAGS 171756Z AUTO 35004KT 10SM FEW002 M09/M10 A2962 RMK AO2 SLP030 T10891100 11056 21089 56007 FZRANO
PAGS 171724Z AUTO 00000KT 10SM SCT002 M09/M10 A2963 RMK AO2 FZRANO
PAGS 171656Z AUTO 00000KT 10SM BKN002 M09/M10 A2963 RMK AO2 SLP033 T10891100 FZRANO
PAGS 171624Z AUTO 00000KT 10SM SCT002 M08/M09 A2963 RMK AO2 FZRANO
PAGS 171606Z AUTO 00000KT 4SM BR OVC002 M08/M09 A2963 RMK AO2 FZRANO
PAGS 171556Z AUTO 33003KT 1 1/4SM BR OVC002 M08/M09 A2963 RMK AO2 VIS 1/2V5 SLP033 T10781089 FZRANO
PAGS 171543Z AUTO 00000KT 1 3/4SM BR OVC002 M08/M09 A2963 RMK AO2 FZRANO
PAGS 171532Z AUTO 00000KT 3SM BR OVC002 M08/M09 A2963 RMK AO2 FZRANO
PAGS 171525Z AUTO 01003KT 1 3/4SM BR OVC002 M08/M09 A2963 RMK AO2 FZRANO
PAGS 171514Z AUTO 00000KT 3SM BR OVC002 M08/M08 A2964 RMK AO2 FZRANO
PAGS 171456Z AUTO 00000KT 1 1/2SM BR OVC002 M08/M09 A2964 RMK AO2 SLP037 T10831094 56018 FZRANO
PAGS 171454Z AUTO 00000KT 1SM BR OVC002 M08/M09 A2964 RMK AO2 FZRANO RVRNO
PAGS 171448Z AUTO 00000KT 1/2SM FZFG OVC002 M08/M09 A2964 RMK AO2 FZRANO RVRNO
PAGS 171441Z AUTO 00000KT 3/4SM BR OVC002 M08/M09 A2964 RMK AO2 FZRANO RVRNO
PAGS 171439Z AUTO 00000KT 1 1/4SM BR OVC002 M08/M09 A2964 RMK AO2 FZRANO
PAGS 171431Z AUTO 00000KT 1SM BR OVC002 M07/M08 A2964 RMK AO2 FZRANO RVRNO
PAGS 171427Z AUTO 00000KT 1/2SM FZFG OVC002 M07/M08 A2964 RMK AO2 FZRANO RVRNO
PAGS 171417Z AUTO 00000KT 3/4SM BR OVC002 M07/M08 A2965 RMK AO2 VIS 1/2V1 3/4 FZRANO RVRNO
PAGS 171410Z AUTO 00000KT 1 3/4SM BR OVC002 M07/M08 A2965 RMK AO2 FZRANO
PAGS 171404Z AUTO 00000KT 4SM BR OVC002 M07/M08 A2965 RMK AO2 FZRANO
PAGS 171356Z AUTO 00000KT 2 1/2SM BR OVC002 M07/M08 A2965 RMK AO2 VIS 1V5 SLP042 T10721083 FZRANO
PAGS 171352Z AUTO 00000KT 1 1/4SM BR OVC002 M07/M08 A2966 RMK AO2 FZRANO
PAGS 171349Z AUTO 00000KT 3/4SM BR OVC002 M07/M08 A2965 RMK AO2 FZRANO RVRNO
PAGS 171337Z AUTO 00000KT 1/4SM FZFG OVC002 M07/M08 A2966 RMK AO2 FZRANO RVRNO
PAGS 171331Z AUTO 00000KT 3/4SM BR OVC002 M07/M08 A2966 RMK AO2 FZRANO RVRNO
PAGS 171323Z AUTO 00000KT 1 1/4SM BR OVC002 M07/M08 A2966 RMK AO2 FZRANO
PAGS 171318Z AUTO 00000KT 3/4SM BR OVC002 M07/M08 A2967 RMK AO2 FZRANO RVRNO
PAGS 171256Z AUTO 00000KT 1 3/4SM BR OVC002 M07/M07 A2967 RMK AO2 VIS 1V5 SLP048 T10671072 FZRANO
PAGS 171238Z AUTO 00000KT 2SM BR OVC002 M06/M07 A2968 RMK AO2 VIS 3/4V5 FZRANO
PAGS 171233Z AUTO 00000KT 1SM BR OVC002 M06/M07 A2968 RMK AO2 FZRANO RVRNO
PAGS 171224Z AUTO 00000KT 1/2SM FZFG OVC002 M06/M07 A2968 RMK AO2 FZRANO RVRNO
PAGS 171207Z AUTO 33003KT 3/4SM BR OVC002 M06/M07 A2969 RMK AO2 VIS 1/2V3 FZRANO RVRNO
PAGS 171156Z AUTO 00000KT 1 1/4SM BR OVC002 M06/M07 A2969 RMK AO2 SLP055 T10561067 11033 21056 56013 FZRANO
PAGS 171146Z AUTO 00000KT 2SM BR OVC002 M06/M07 A2970 RMK AO2 FZRANO
PAGS 171137Z AUTO 00000KT 1SM BR OVC002 M06/M06 A2970 RMK AO2 FZRANO RVRNO
PAGS 171119Z AUTO 00000KT 3/4SM BR OVC002 M05/M06 A2970 RMK AO2 FZRANO RVRNO
PAGS 171056Z AUTO 00000KT 1/2SM FZFG OVC002 M04/M05 A2970 RMK AO2 SLP059 T10441050 FZRANO RVRNO
PAGS 171046Z AUTO 00000KT 1SM BR OVC002 M04/M06 A2970 RMK AO2 FZRANO RVRNO
PAGS 171034Z AUTO 33004KT 3/4SM BR OVC002 M04/M05 A2971 RMK AO2 FZRANO RVRNO
PAGS 171023Z AUTO 00000KT 1/2SM FZFG OVC002 M04/M04 A2971 RMK AO2 FZRANO RVRNO
PAGS 171007Z AUTO 00000KT 3/4SM BR OVC002 M04/M04 A2971 RMK AO2 FZRANO RVRNO
PAGS 170956Z AUTO 36003KT 1/4SM FZFG OVC002 M03/M04 A2972 RMK AO2 SLP063 T10331039 FZRANO RVRNO
PAGS 170856Z AUTO 00000KT 1/4SM FZFG OVC002 M03/M04 A2973 RMK AO2 SLP068 T10331039 400331050 58009 FZRANO RVRNO
PAGS 170756Z AUTO 34003KT 1/4SM FZFG OVC002 M03/M04 A2974 RMK AO2 SLP072 T10331039 FZRANO RVRNO
PAGS 170725Z AUTO 00000KT 1/4SM FZFG OVC002 M04/M05 A2975 RMK AO2 FZRANO RVRNO
PAGS 170656Z AUTO 00000KT 1/2SM FZFG OVC002 M04/M05 A2976 RMK AO2 SLP077 T10441050 FZRANO RVRNO
PAGS 170645Z AUTO 00000KT 1/2SM FZFG OVC002 M04/M05 A2976 RMK AO2 FZRANO RVRNO
PAGS 170637Z AUTO 00000KT 3/4SM BR OVC002 M04/M05 A2976 RMK AO2 FZRANO RVRNO
PAGS 170627Z AUTO 00000KT 1/2SM FZFG BKN002 M04/M05 A2976 RMK AO2 FZRANO RVRNO
PAGS 170609Z AUTO 00000KT 3/4SM BR OVC002 M04/M05 A2976 RMK AO2 FZRANO RVRNO
PAGS 170556Z AUTO 00000KT 1/2SM FZFG OVC002 M04/M04 A2976 RMK AO2 SLP078 T10391044 10000 21039 55004 FZRANO RVRNO
PAGS 170532Z AUTO 00000KT 1/2SM FZFG OVC002 M04/M04 A2976 RMK AO2 FZRANO RVRNO
PAGS 170519Z AUTO 00000KT 3/4SM BR OVC002 M03/M04 A2976 RMK AO2 FZRANO RVRNO
PAGS 170507Z AUTO 00000KT 1 1/4SM BR OVC002 M03/M04 A2976 RMK AO2 FZRANO
PAGS 170456Z AUTO 00000KT 3/4SM BR OVC002 M03/M03 A2976 RMK AO2 SLP077 T10281033 FZRANO RVRNO
PAGS 170445Z AUTO 00000KT 1/2SM FZFG OVC002 M03/M03 A2976 RMK AO2 FZRANO RVRNO
PAGS 170432Z AUTO 00000KT 3/4SM BR OVC002 M03/M03 A2976 RMK AO2 FZRANO RVRNO
PAGS 170419Z AUTO 00000KT 1SM BR BKN002 M03/M03 A2976 RMK AO2 FZRANO RVRNO
PAGS 170415Z AUTO 00000KT 1 3/4SM BR SCT002 M02/M03 A2977 RMK AO2 FZRANO
PAGS 170410Z AUTO 03003KT 3SM BR FEW002 M02/M03 A2977 RMK AO2 FZRANO
PAGS 170356Z AUTO 00000KT 1 3/4SM BR FEW002 M02/M03 A2977 RMK AO2 VIS 1V5 SLP080 T10221028 FZRANO
PAGS 170349Z AUTO 00000KT 3SM BR SCT002 M02/M02 A2977 RMK AO2 FZRANO
PAGS 170343Z AUTO 00000KT 2 1/2SM BR BKN002 M02/M02 A2977 RMK AO2 VIS 1 1/4V5 FZRANO
PAGS 170328Z AUTO 32003KT 3SM BR OVC002 M02/M02 A2977 RMK AO2 FZRANO
PAGS 170323Z AUTO 32003KT 1 3/4SM BR OVC002 M01/M02 A2977 RMK AO2 FZRANO
PAGS 170312Z AUTO 33004KT 1SM BR OVC002 M01/M02 A2977 RMK AO2 FZRANO RVRNO
PAGS 170304Z AUTO 32005KT 3/4SM BR OVC002 M01/M01 A2977 RMK AO2 FZRANO RVRNO
PAGS 170256Z AUTO 32005KT 1/2SM FZFG OVC002 M01/M01 A2977 RMK AO2 SLP082 T10111011 58009 FZRANO RVRNO
PAGS 170239Z AUTO 33005KT 1/2SM FZFG OVC002 M01/M01 A2978 RMK AO2 FZRANO RVRNO
PAGS 170156Z AUTO 33007KT 1/4SM FZFG OVC002 M01/M01 A2979 RMK AO2 SLP088 T10061006 FZRANO RVRNO
PAGS 170144Z AUTO 33006KT 1/4SM FZFG OVC002 M01/M01 A2979 RMK AO2 FZRANO RVRNO
PAGS 170128Z AUTO 32006KT 1/2SM FZFG OVC002 M01/M01 A2979 RMK AO2 FZRANO RVRNO
PAGS 170118Z AUTO 32007KT 1/4SM FZFG OVC002 M01/M02 A2979 RMK AO2 FZRANO RVRNO
PAGS 170106Z AUTO 32006KT 1/2SM FZFG OVC002 M01/M02 A2979 RMK AO2 FZRANO RVRNO
PAGS 170056Z AUTO 32006KT 1/4SM FZFG OVC002 M01/M01 A2979 RMK AO2 SLP089 T10061011 FZRANO RVRNO
PAGS 162356Z AUTO 33007KT 1/4SM FG OVC002 00/M01 A2980 RMK AO2 SLP091 T00001006 10033 21044 55004 FZRANO RVRNO
PAGS 162343Z AUTO 33008KT 1/2SM FG BKN002 00/M01 A2980 RMK AO2 FZRANO RVRNO
PAGS 162337Z AUTO 33008KT 1SM BR BKN002 00/M01 A2980 RMK AO2 FZRANO RVRNO
PAGS 162325Z AUTO 33007KT 1 1/2SM BR SCT002 01/M01 A2980 RMK AO2 FZRANO
PAGS 162317Z AUTO 33007KT 1SM BR VV002 01/M01 A2980 RMK AO2 FZRANO RVRNO
PAGS 162311Z AUTO 33007KT 2 1/2SM BR FEW002 01/00 A2980 RMK AO2 FZRANO
PAGS 162256Z AUTO 32007KT 10SM FEW015 02/01 A2980 RMK AO2 SLP091 T00170006 FZRANO